Time;durP1;ratioP1;P1;durP2;ratioP2;P2;SDS_P1;SDS_P2;PMS_P1;PMS_P2;Temp;Humidity;BMP_temperature;BMP_pressure;BME280_temperature;BME280_humidity;BME280_pressure;Samples;Min_cycle;Max_cycle;Signal;HPM_P1;HPM_P2
2022/04/28 00:00:53;;;;;;;6.83;5.50;;;;;19.60;101651.00;;;;2079791;28;20216;-49
2022/04/28 00:01:53;;;;;;;5.90;5.37;;;;;19.60;101647.00;;;;2079718;28;20471;-49
2022/04/28 00:02:54;;;;;;;6.63;5.40;;;;;19.60;101650.00;;;;2079873;28;20237;-47
2022/04/28 00:03:54;;;;;;;7.47;5.10;;;;;19.60;101639.00;;;;2079771;28;20218;-45
2022/04/28 00:04:55;;;;;;;5.60;4.77;;;;;19.60;101650.00;;;;2079690;28;20270;-47
2022/04/28 00:05:57;;;;;;;8.63;5.07;;;;;19.60;101655.00;;;;2078062;28;20214;-47
2022/04/28 00:06:57;;;;;;;5.28;4.78;;;;;19.60;101651.00;;;;2078987;28;20217;-46
2022/04/28 00:07:57;;;;;;;6.33;4.87;;;;;19.60;101647.00;;;;2082916;28;20213;-47
2022/04/28 00:08:58;;;;;;;6.83;5.60;;;;;19.60;101651.00;;;;2087268;28;20241;-46
2022/04/28 00:09:58;;;;;;;5.63;5.00;;;;;19.60;101654.00;;;;2086416;28;20217;-47
2022/04/28 00:10:59;;;;;;;6.20;5.60;;;;;19.60;101649.00;;;;2081485;28;20209;-47
2022/04/28 00:11:59;;;;;;;5.33;4.83;;;;;19.60;101643.00;;;;2087658;28;21029;-47
2022/04/28 00:13:00;;;;;;;5.53;5.03;;;;;19.60;101658.00;;;;2088018;28;20243;-47
2022/04/28 00:14:01;;;;;;;5.60;5.10;;;;;19.60;101651.00;;;;2087995;28;20242;-47
2022/04/28 00:15:01;;;;;;;6.57;5.30;;;;;19.60;101649.00;;;;2087969;28;20249;-46
2022/04/28 00:16:02;;;;;;;5.07;4.57;;;;;19.60;101648.00;;;;2080710;28;20213;-47
2022/04/28 00:17:02;;;;;;;7.90;5.13;;;;;19.60;101655.00;;;;2079805;28;20494;-47
2022/04/28 00:18:03;;;;;;;5.80;5.17;;;;;19.60;101649.00;;;;2078969;28;20214;-46
2022/04/28 00:19:03;;;;;;;4.73;4.33;;;;;19.60;101646.00;;;;2079128;28;20210;-47
2022/04/28 00:20:05;;;;;;;5.67;4.80;;;;;19.60;101655.00;;;;2079271;28;20197;-47
2022/04/28 00:21:05;;;;;;;5.60;4.93;;;;;19.60;101652.00;;;;2087751;28;21143;-46
2022/04/28 00:22:05;;;;;;;6.27;4.97;;;;;19.60;101660.00;;;;2087678;28;20224;-47
2022/04/28 00:23:06;;;;;;;5.50;5.00;;;;;19.60;101645.00;;;;2087947;28;20205;-47
2022/04/28 00:24:06;;;;;;;4.93;4.50;;;;;19.60;101648.00;;;;2087134;28;20323;-47
2022/04/28 00:25:07;;;;;;;5.63;4.60;;;;;19.60;101644.00;;;;2087034;28;20213;-47
2022/04/28 00:26:08;;;;;;;5.63;5.00;;;;;19.60;101645.00;;;;2087013;28;20231;-46
2022/04/28 00:27:08;;;;;;;5.90;5.30;;;;;19.60;101639.00;;;;2087584;28;20722;-46
2022/04/28 00:28:08;;;;;;;6.73;5.30;;;;;19.60;101649.00;;;;2086313;28;20209;-47
2022/04/28 00:29:09;;;;;;;5.60;5.00;;;;;19.60;101654.00;;;;2087777;28;20249;-47
2022/04/28 00:30:09;;;;;;;4.87;4.43;;;;;19.60;101653.00;;;;2087642;28;20201;-47
2022/04/28 00:31:10;;;;;;;6.60;4.63;;;;;19.60;101648.00;;;;2087889;28;20205;-46
2022/04/28 00:32:10;;;;;;;6.40;5.10;;;;;19.60;101644.00;;;;2087887;28;20201;-46
2022/04/28 00:33:10;;;;;;;5.20;4.70;;;;;19.60;101645.00;;;;2087125;28;20279;-47
2022/04/28 00:34:11;;;;;;;5.40;4.90;;;;;19.60;101651.00;;;;2087040;28;20201;-47
2022/04/28 00:35:11;;;;;;;6.63;5.07;;;;;19.60;101646.00;;;;2087735;28;20220;-47
2022/04/28 00:36:11;;;;;;;5.90;4.50;;;;;19.60;101648.00;;;;2085458;28;20283;-47
2022/04/28 00:37:13;;;;;;;5.87;5.30;;;;;19.60;101650.00;;;;2086742;28;20208;-50
2022/04/28 00:38:14;;;;;;;6.78;4.90;;;;;19.60;101650.00;;;;2087027;28;20220;-46
2022/04/28 00:39:14;;;;;;;5.07;4.57;;;;;19.60;101648.00;;;;2087621;28;20772;-46
2022/04/28 00:40:15;;;;;;;4.80;4.30;;;;;19.60;101647.00;;;;2086749;28;20473;-47
2022/04/28 00:41:15;;;;;;;4.80;4.40;;;;;19.60;101648.00;;;;2087137;28;20231;-45
2022/04/28 00:42:16;;;;;;;4.90;4.40;;;;;19.60;101652.00;;;;2083644;28;20221;-46
2022/04/28 00:43:19;;;;;;;5.83;4.83;;;;;19.60;101651.00;;;;2078934;28;20228;-46
2022/04/28 00:44:19;;;;;;;5.47;4.95;;;;;19.60;101652.00;;;;2078810;28;20226;-47
2022/04/28 00:45:19;;;;;;;5.83;4.80;;;;;19.60;101646.00;;;;2078276;28;20209;-47
2022/04/28 00:46:20;;;;;;;6.33;5.17;;;;;19.60;101649.00;;;;2078533;28;20304;-47
2022/04/28 00:47:22;;;;;;;6.20;4.30;;;;;19.60;101650.00;;;;2078414;28;20214;-46
2022/04/28 00:51:02;;;;;;;5.00;4.50;;;;;19.60;101650.00;;;;2079017;28;20722;-48
2022/04/28 00:52:03;;;;;;;4.97;4.40;;;;;19.60;101643.00;;;;2079193;28;20756;-47
2022/04/28 00:53:04;;;;;;;5.60;4.37;;;;;19.60;101650.00;;;;2072301;28;20268;-48
2022/04/28 00:54:04;;;;;;;4.87;4.47;;;;;19.60;101644.00;;;;2070524;28;20218;-47
2022/04/28 00:55:05;;;;;;;4.70;4.20;;;;;19.60;101651.00;;;;2069257;28;20473;-47
2022/04/28 00:56:05;;;;;;;7.47;4.40;;;;;19.60;101649.00;;;;2070388;28;20214;-47
2022/04/28 00:57:06;;;;;;;5.70;4.47;;;;;19.50;101648.00;;;;2070655;28;20210;-46
2022/04/28 00:58:06;;;;;;;5.07;4.57;;;;;19.50;101649.00;;;;2077830;28;20220;-47
2022/04/28 00:59:06;;;;;;;5.10;4.40;;;;;19.60;101652.00;;;;2078309;28;20213;-47
2022/04/28 01:00:07;;;;;;;6.40;4.03;;;;;19.60;101653.00;;;;2077745;28;20213;-46
2022/04/28 01:01:08;;;;;;;5.33;4.83;;;;;19.50;101653.00;;;;2078255;28;21113;-47
2022/04/28 01:02:11;;;;;;;6.77;4.93;;;;;19.50;101658.00;;;;2079230;28;20879;-47
2022/04/28 01:03:11;;;;;;;4.70;4.30;;;;;19.50;101649.00;;;;2079385;28;20678;-47
2022/04/28 01:04:11;;;;;;;5.40;4.70;;;;;19.50;101637.00;;;;2079027;28;20216;-47
2022/04/28 01:05:12;;;;;;;6.03;3.93;;;;;19.60;101642.00;;;;2079536;28;20205;-46
2022/04/28 01:06:12;;;;;;;4.03;3.70;;;;;19.60;101647.00;;;;2078124;28;20256;-47
2022/04/28 01:07:13;;;;;;;4.47;4.07;;;;;19.60;101647.00;;;;2078445;28;20291;-46
2022/04/28 01:08:13;;;;;;;5.87;4.30;;;;;19.60;101644.00;;;;2079397;28;20574;-46
2022/04/28 01:09:14;;;;;;;4.83;3.90;;;;;19.60;101650.00;;;;2079263;28;20215;-46
2022/04/28 01:10:15;;;;;;;6.57;4.40;;;;;19.60;101649.00;;;;2074383;28;20214;-47
2022/04/28 01:11:18;;;;;;;11.53;4.47;;;;;19.60;101653.00;;;;2070378;28;20448;-47
2022/04/28 01:12:21;;;;;;;7.60;4.30;;;;;19.60;101654.00;;;;2071319;28;20450;-46
2022/04/28 01:13:22;;;;;;;6.22;4.20;;;;;19.60;101646.00;;;;2070921;28;20687;-46
2022/04/28 01:14:22;;;;;;;5.53;4.50;;;;;19.60;101658.00;;;;2072138;28;20206;-47
2022/04/28 01:15:22;;;;;;;4.20;3.80;;;;;19.60;101667.00;;;;2078750;28;20278;-48
2022/04/28 01:16:23;;;;;;;5.63;4.30;;;;;19.60;101655.00;;;;2079271;28;20237;-47
2022/04/28 01:17:23;;;;;;;5.40;4.43;;;;;19.60;101657.00;;;;2079068;28;20708;-46
2022/04/28 01:18:23;;;;;;;4.80;4.30;;;;;19.60;101645.00;;;;2079042;28;20263;-46
2022/04/28 01:19:24;;;;;;;4.17;3.80;;;;;19.60;101651.00;;;;2079314;28;20221;-46
2022/04/28 01:20:24;;;;;;;4.40;3.77;;;;;19.60;101659.00;;;;2079242;28;20229;-47
2022/04/28 01:21:25;;;;;;;4.70;4.20;;;;;19.70;101662.00;;;;2072366;28;20229;-48
2022/04/28 01:22:25;;;;;;;5.57;4.53;;;;;19.70;101651.00;;;;2070951;28;20226;-46
2022/04/28 01:23:26;;;;;;;4.77;4.37;;;;;19.70;101655.00;;;;2070925;28;20722;-46
2022/04/28 01:24:26;;;;;;;4.00;3.60;;;;;19.70;101654.00;;;;2070086;28;20218;-47
2022/04/28 01:25:26;;;;;;;4.73;4.03;;;;;19.70;101660.00;;;;2069585;28;20214;-47
2022/04/28 01:26:27;;;;;;;6.40;4.13;;;;;19.70;101657.00;;;;2070943;28;20225;-47
2022/04/28 01:27:27;;;;;;;4.67;4.27;;;;;19.70;101659.00;;;;2071080;28;20217;-47
2022/04/28 01:28:28;;;;;;;3.97;3.63;;;;;19.70;101669.00;;;;2063071;28;20241;-48
2022/04/28 01:29:31;;;;;;;4.47;4.07;;;;;19.70;101669.00;;;;2078581;28;20320;-47
2022/04/28 01:30:33;;;;;;;5.18;4.05;;;;;19.60;101669.00;;;;2080003;28;21017;-47
2022/04/28 01:31:34;;;;;;;4.75;4.35;;;;;19.60;101663.00;;;;2079050;28;20280;-46
2022/04/28 01:32:34;;;;;;;4.70;4.27;;;;;19.60;101593.00;;;;2077159;28;20216;-46
2022/04/28 01:33:35;;;;;;;5.90;4.20;;;;;19.60;101662.00;;;;2086599;28;20681;-46
2022/04/28 01:34:35;;;;;;;5.93;4.17;;;;;19.60;101665.00;;;;2071133;28;20581;-46
2022/04/28 01:35:35;;;;;;;4.97;4.47;;;;;19.60;101668.00;;;;2070294;28;20229;-47
2022/04/28 01:36:36;;;;;;;4.33;3.93;;;;;19.60;101662.00;;;;2070987;28;20295;-46
2022/04/28 01:37:36;;;;;;;4.40;4.00;;;;;19.60;101668.00;;;;2070898;28;20222;-47
2022/04/28 01:38:36;;;;;;;4.30;3.63;;;;;19.60;101669.00;;;;2070986;28;20264;-47
2022/04/28 01:39:37;;;;;;;4.40;4.10;;;;;19.60;101672.00;;;;2069873;28;22020;-51
2022/04/28 01:40:37;;;;;;;5.60;3.73;;;;;19.60;101677.00;;;;2070827;28;20225;-48
2022/04/28 01:41:37;;;;;;;5.73;3.90;;;;;19.60;101680.00;;;;2077654;28;20222;-48
2022/04/28 01:42:41;;;;;;;4.90;4.40;;;;;19.60;101662.00;;;;2079012;28;20271;-47
2022/04/28 01:43:41;;;;;;;6.55;4.20;;;;;19.60;101667.00;;;;2078621;28;20222;-48
2022/04/28 01:44:42;;;;;;;5.43;4.10;;;;;19.60;101670.00;;;;2078816;28;20233;-47
2022/04/28 01:45:42;;;;;;;5.73;4.23;;;;;19.60;101668.00;;;;2078114;28;20209;-47
2022/04/28 01:46:43;;;;;;;3.70;3.40;;;;;19.60;101675.00;;;;2078964;28;20224;-47
2022/04/28 01:47:43;;;;;;;4.03;3.70;;;;;19.60;101674.00;;;;2078387;28;20340;-47
2022/04/28 01:48:43;;;;;;;7.03;4.50;;;;;19.60;101672.00;;;;2079112;28;20209;-47
2022/04/28 01:49:44;;;;;;;4.50;4.10;;;;;19.60;101672.00;;;;2079001;28;20214;-47
2022/04/28 01:54:57;;;;;;;4.20;3.80;;;;;19.60;101670.00;;;;2078912;28;20205;-46
2022/04/28 01:55:00;;;;;;;4.22;3.90;;;;;19.60;101671.00;;;;2078531;28;20205;-46
2022/04/28 01:56:00;;;;;;;5.45;4.30;;;;;19.60;101671.00;;;;2071793;28;20225;-47
2022/04/28 01:57:01;;;;;;;4.70;3.70;;;;;19.60;101666.00;;;;2070436;28;20238;-47
2022/04/28 01:58:01;;;;;;;4.40;4.00;;;;;19.60;101670.00;;;;2070691;28;20220;-47
2022/04/28 01:59:01;;;;;;;4.30;3.40;;;;;19.60;101665.00;;;;2070915;28;20233;-46
2022/04/28 02:00:02;;;;;;;6.03;3.90;;;;;19.60;101660.00;;;;2070735;28;20323;-47
2022/04/28 02:01:03;;;;;;;5.80;4.88;;;;;19.60;101669.00;;;;2070924;28;20221;-47
2022/04/28 02:02:03;;;;;;;4.43;3.80;;;;;19.60;101666.00;;;;2070579;28;20218;-47
2022/04/28 02:03:03;;;;;;;4.10;3.77;;;;;19.60;101666.00;;;;2070626;28;20757;-46
2022/04/28 02:04:04;;;;;;;4.67;3.97;;;;;19.60;101663.00;;;;2070833;28;20662;-46
2022/04/28 02:05:05;;;;;;;4.47;3.80;;;;;19.60;101666.00;;;;2070785;28;20564;-46
2022/04/28 02:06:05;;;;;;;4.45;4.00;;;;;19.60;101667.00;;;;2070312;28;20591;-47
2022/04/28 02:07:06;;;;;;;4.50;3.77;;;;;19.50;101663.00;;;;2078786;28;20220;-46
2022/04/28 02:08:07;;;;;;;4.53;4.13;;;;;19.60;101664.00;;;;2078606;28;20220;-47
2022/04/28 02:09:08;;;;;;;4.45;4.00;;;;;19.60;101669.00;;;;2079010;28;20221;-48
2022/04/28 02:10:09;;;;;;;4.47;3.97;;;;;19.60;101674.00;;;;2078589;28;20213;-47
2022/04/28 02:11:09;;;;;;;4.53;4.13;;;;;19.60;101666.00;;;;2078943;28;20224;-46
2022/04/28 02:12:10;;;;;;;4.30;3.90;;;;;19.50;101666.00;;;;2072979;28;20456;-47
2022/04/28 02:13:11;;;;;;;4.20;3.90;;;;;19.60;101664.00;;;;2070581;28;20301;-47
2022/04/28 02:14:11;;;;;;;4.30;3.90;;;;;19.50;101661.00;;;;2074845;28;20412;-47
2022/04/28 02:15:11;;;;;;;4.30;3.90;;;;;19.60;101669.00;;;;2078936;28;20221;-46
2022/04/28 02:16:12;;;;;;;4.13;3.80;;;;;19.60;101660.00;;;;2077844;28;20248;-47
2022/04/28 02:17:19;;;;;;;4.30;3.90;;;;;19.50;101664.00;;;;2078602;28;20247;-47
2022/04/28 02:18:19;;;;;;;4.95;3.53;;;;;19.50;101664.00;;;;2078686;28;20217;-46
2022/04/28 02:19:20;;;;;;;3.93;3.60;;;;;19.50;101661.00;;;;2078825;28;20205;-47
2022/04/28 02:20:20;;;;;;;4.80;3.90;;;;;19.50;101672.00;;;;2078759;28;20248;-47
2022/04/28 02:21:20;;;;;;;4.33;3.83;;;;;19.50;101669.00;;;;2078763;28;20201;-47
2022/04/28 02:22:21;;;;;;;4.60;3.90;;;;;19.50;101668.00;;;;2078511;28;20249;-46
2022/04/28 02:23:21;;;;;;;5.40;4.13;;;;;19.50;101674.00;;;;2078782;28;20240;-46
2022/04/28 02:24:21;;;;;;;7.50;3.60;;;;;19.50;101669.00;;;;2078833;28;20582;-45
2022/04/28 02:25:22;;;;;;;4.20;3.80;;;;;19.50;101670.00;;;;2078395;28;20209;-47
2022/04/28 02:26:22;;;;;;;4.17;3.63;;;;;19.50;101670.00;;;;2078624;28;20248;-47
2022/04/28 02:27:24;;;;;;;4.23;3.83;;;;;19.50;101668.00;;;;2078096;28;20205;-46
2022/04/28 02:28:25;;;;;;;4.47;4.03;;;;;19.50;101664.00;;;;2071464;28;20235;-46
2022/04/28 02:29:25;;;;;;;4.20;3.80;;;;;19.50;101670.00;;;;2073984;28;20227;-47
2022/04/28 02:30:25;;;;;;;4.47;4.03;;;;;19.50;101672.00;;;;2079197;28;20224;-46
2022/04/28 02:31:26;;;;;;;4.27;3.70;;;;;19.50;101666.00;;;;2079254;28;20682;-46
2022/04/28 02:33:08;;;;;;;4.60;4.00;;;;;19.50;101681.00;;;;2069276;28;20221;-46
2022/04/28 02:33:46;;;;;;;5.05;3.90;;;;;19.50;101686.00;;;;2075932;28;20240;-46
2022/04/28 02:34:47;;;;;;;4.10;3.70;;;;;19.50;101671.00;;;;2077475;28;20686;-46
2022/04/28 02:35:47;;;;;;;4.90;3.80;;;;;19.50;101678.00;;;;2077274;28;20725;-45
2022/04/28 02:36:47;;;;;;;5.03;3.93;;;;;19.50;101677.00;;;;2077987;28;20268;-46
2022/04/28 02:37:48;;;;;;;3.73;3.40;;;;;19.50;101679.00;;;;2077928;28;20233;-45
2022/04/28 02:38:49;;;;;;;4.50;4.10;;;;;19.50;101676.00;;;;2078263;28;20232;-47
2022/04/28 02:39:49;;;;;;;4.70;4.00;;;;;19.50;101681.00;;;;2077168;28;20236;-46
2022/04/28 02:40:49;;;;;;;4.90;4.20;;;;;19.50;101682.00;;;;2077517;28;20240;-47
2022/04/28 02:41:50;;;;;;;4.60;4.13;;;;;19.50;101680.00;;;;2076849;28;20275;-46
2022/04/28 02:42:50;;;;;;;4.23;3.70;;;;;19.50;101673.00;;;;2078913;28;20209;-45
2022/04/28 02:43:51;;;;;;;4.77;4.37;;;;;19.50;101676.00;;;;2078561;28;20267;-46
2022/04/28 02:44:51;;;;;;;3.97;3.67;;;;;19.50;101674.00;;;;2078849;28;20236;-46
2022/04/28 02:45:52;;;;;;;4.70;4.30;;;;;19.50;101674.00;;;;2078224;28;20236;-46
2022/04/28 02:46:52;;;;;;;4.17;3.63;;;;;19.50;101674.00;;;;2078575;28;20693;-46
2022/04/28 02:47:52;;;;;;;3.80;3.50;;;;;19.50;101675.00;;;;2078769;28;20296;-46
2022/04/28 02:48:53;;;;;;;4.30;3.90;;;;;19.50;101671.00;;;;2078436;28;20201;-45
2022/04/28 02:49:53;;;;;;;4.53;3.90;;;;;19.50;101673.00;;;;2078640;28;20239;-48
2022/04/28 02:50:53;;;;;;;4.57;3.90;;;;;19.50;101669.00;;;;2078457;28;20213;-46
2022/04/28 02:51:54;;;;;;;4.53;4.10;;;;;19.50;101676.00;;;;2078672;28;20243;-46
2022/04/28 02:52:54;;;;;;;3.77;3.47;;;;;19.50;101661.00;;;;2077523;28;20747;-46
2022/04/28 02:53:54;;;;;;;4.00;3.60;;;;;19.50;101666.00;;;;2078712;28;20825;-46
2022/04/28 02:54:54;;;;;;;4.50;3.80;;;;;19.50;101670.00;;;;2078695;28;20754;-46
2022/04/28 02:55:55;;;;;;;5.10;3.67;;;;;19.50;101666.00;;;;2077983;28;20584;-45
2022/04/28 02:56:55;;;;;;;3.93;3.63;;;;;19.50;101675.00;;;;2078279;28;20765;-45
2022/04/28 02:57:56;;;;;;;3.60;3.30;;;;;19.50;101667.00;;;;2078579;28;20698;-48
2022/04/28 02:58:56;;;;;;;4.27;3.97;;;;;19.50;101671.00;;;;2078822;28;20677;-46
2022/04/28 02:59:57;;;;;;;4.03;3.63;;;;;19.50;101687.00;;;;2078469;28;20236;-48
2022/04/28 03:00:58;;;;;;;4.13;3.72;;;;;19.50;101668.00;;;;2078526;28;20213;-47
2022/04/28 03:01:58;;;;;;;4.50;3.93;;;;;19.50;101673.00;;;;2073268;28;20643;-47
2022/04/28 03:02:58;;;;;;;4.30;3.83;;;;;19.50;101670.00;;;;2069973;28;20572;-47
2022/04/28 03:03:59;;;;;;;4.50;4.10;;;;;19.50;101672.00;;;;2070550;28;20581;-47
2022/04/28 03:05:01;;;;;;;4.30;3.83;;;;;19.40;101672.00;;;;2070337;28;20976;-47
2022/04/28 03:11:17;;;;;;;4.57;3.85;;;;;19.40;101667.00;;;;2069432;28;20749;-47
2022/04/28 03:12:17;;;;;;;4.47;4.00;;;;;19.50;101674.00;;;;2078767;28;20213;-47
2022/04/28 03:13:21;;;;;;;4.70;4.10;;;;;19.50;101672.00;;;;2073420;28;20285;-46
2022/04/28 03:14:21;;;;;;;4.47;4.07;;;;;19.40;101670.00;;;;2070083;28;20214;-46
2022/04/28 03:15:22;;;;;;;4.07;3.70;;;;;19.40;101674.00;;;;2070100;28;20229;-47
2022/04/28 03:16:23;;;;;;;5.47;4.77;;;;;19.40;101679.00;;;;2070408;28;20206;-46
2022/04/28 03:17:23;;;;;;;4.37;4.00;;;;;19.40;101678.00;;;;2072509;28;20210;-46
2022/04/28 03:18:23;;;;;;;4.63;4.23;;;;;19.40;101679.00;;;;2079344;28;20483;-46
2022/04/28 03:19:24;;;;;;;4.30;3.90;;;;;19.40;101673.00;;;;2080226;28;20272;-47
2022/04/28 03:20:24;;;;;;;4.33;3.93;;;;;19.40;101678.00;;;;2072777;28;20226;-47
2022/04/28 03:21:24;;;;;;;4.80;4.40;;;;;19.40;101676.00;;;;2079872;28;20275;-46
2022/04/28 03:22:25;;;;;;;4.77;4.37;;;;;19.40;101679.00;;;;2080187;28;20276;-46
2022/04/28 03:23:25;;;;;;;5.03;4.33;;;;;19.40;101677.00;;;;2080156;28;20205;-46
2022/04/28 03:24:25;;;;;;;4.13;3.73;;;;;19.40;101671.00;;;;2080101;28;20217;-47
2022/04/28 03:25:26;;;;;;;5.40;3.60;;;;;19.40;101669.00;;;;2079352;28;20214;-46
2022/04/28 03:26:28;;;;;;;4.83;4.30;;;;;19.40;101679.00;;;;2080136;28;20267;-46
2022/04/28 03:27:31;;;;;;;5.25;4.40;;;;;19.40;101682.00;;;;2080025;28;20219;-47
2022/04/28 03:28:34;;;;;;;4.57;4.13;;;;;19.40;101681.00;;;;2076554;28;20221;-47
2022/04/28 03:29:36;;;;;;;4.78;4.38;;;;;19.40;101678.00;;;;2080177;28;20278;-46
2022/04/28 03:30:37;;;;;;;4.88;4.30;;;;;19.40;101679.00;;;;2080062;28;20213;-48
2022/04/28 03:31:37;;;;;;;4.47;4.07;;;;;19.40;101670.00;;;;2079925;28;20246;-48
2022/04/28 03:32:37;;;;;;;4.40;4.00;;;;;19.40;101674.00;;;;2080236;28;20209;-47
2022/04/28 03:33:38;;;;;;;4.50;4.10;;;;;19.40;101670.00;;;;2079991;28;20240;-49
2022/04/28 03:34:38;;;;;;;4.10;3.70;;;;;19.40;101671.00;;;;2080008;28;20217;-47
2022/04/28 03:35:38;;;;;;;3.97;3.67;;;;;19.40;101676.00;;;;2079098;28;20714;-47
2022/04/28 03:36:51;;;;;;;4.50;4.10;;;;;19.40;101679.00;;;;2079961;28;20562;-47
2022/04/28 03:37:51;;;;;;;4.38;3.95;;;;;19.40;101672.00;;;;2080114;28;20637;-47
2022/04/28 03:38:52;;;;;;;3.90;3.60;;;;;19.40;101691.00;;;;2080167;28;20209;-47
2022/04/28 03:39:52;;;;;;;4.40;3.70;;;;;19.40;101687.00;;;;2080307;28;20217;-47
2022/04/28 03:40:52;;;;;;;4.10;3.70;;;;;19.40;101684.00;;;;2079952;28;20240;-47
2022/04/28 03:41:53;;;;;;;4.07;3.77;;;;;19.40;101680.00;;;;2080070;28;20263;-47
2022/04/28 03:42:53;;;;;;;4.30;3.90;;;;;19.40;101684.00;;;;2080170;28;20890;-47
2022/04/28 03:43:53;;;;;;;5.20;4.00;;;;;19.40;101683.00;;;;2079825;28;20247;-47
2022/04/28 03:44:54;;;;;;;4.77;4.37;;;;;19.40;101685.00;;;;2079799;28;20217;-47
2022/04/28 03:45:54;;;;;;;4.07;3.60;;;;;19.40;101673.00;;;;2079211;28;20380;-46
2022/04/28 03:46:55;;;;;;;4.60;4.20;;;;;19.40;101685.00;;;;2080060;28;20655;-47
2022/04/28 03:47:56;;;;;;;3.90;3.50;;;;;19.40;101682.00;;;;2079708;28;20237;-49
2022/04/28 03:48:56;;;;;;;4.70;4.30;;;;;19.40;101683.00;;;;2079948;28;20224;-49
2022/04/28 03:49:56;;;;;;;4.80;3.83;;;;;19.40;101683.00;;;;2079876;28;20213;-47
2022/04/28 03:50:57;;;;;;;4.33;3.97;;;;;19.40;101684.00;;;;2078878;28;20215;-47
2022/04/28 03:51:57;;;;;;;4.70;4.10;;;;;19.40;101678.00;;;;2079262;28;20213;-47
2022/04/28 03:52:57;;;;;;;4.50;4.20;;;;;19.40;101679.00;;;;2079720;28;20283;-46
2022/04/28 03:54:00;;;;;;;4.43;4.03;;;;;19.40;101678.00;;;;2079827;28;20819;-47
2022/04/28 03:55:00;;;;;;;4.90;4.32;;;;;19.40;101674.00;;;;2079888;28;20210;-47
2022/04/28 03:56:01;;;;;;;4.37;4.07;;;;;19.40;101679.00;;;;2079227;28;20236;-47
2022/04/28 03:57:01;;;;;;;4.30;3.90;;;;;19.40;101682.00;;;;2077741;28;20244;-47
2022/04/28 03:58:01;;;;;;;4.40;4.00;;;;;19.40;101692.00;;;;2071603;28;20221;-47
2022/04/28 03:59:02;;;;;;;4.67;4.20;;;;;19.40;101680.00;;;;2071547;28;20210;-47
2022/04/28 04:00:04;;;;;;;4.53;4.13;;;;;19.40;101685.00;;;;2071869;28;20214;-47
2022/04/28 04:01:04;;;;;;;4.50;4.10;;;;;19.40;101686.00;;;;2071716;28;20217;-47
2022/04/28 04:02:05;;;;;;;4.40;4.00;;;;;19.40;101686.00;;;;2071584;28;20718;-47
2022/04/28 04:03:05;;;;;;;4.87;4.30;;;;;19.40;101689.00;;;;2071656;28;20695;-47
2022/04/28 04:04:05;;;;;;;4.70;4.20;;;;;19.40;101688.00;;;;2071570;28;20207;-47
2022/04/28 04:05:06;;;;;;;4.67;4.00;;;;;19.40;101689.00;;;;2071256;28;20641;-47
2022/04/28 04:06:06;;;;;;;5.70;4.67;;;;;19.40;101681.00;;;;2069920;28;20284;-47
2022/04/28 04:07:07;;;;;;;4.93;4.43;;;;;19.40;101693.00;;;;2070425;28;20958;-46
2022/04/28 04:08:07;;;;;;;4.30;3.90;;;;;19.40;101687.00;;;;2079430;28;20232;-47
2022/04/28 04:09:08;;;;;;;4.50;4.10;;;;;19.40;101685.00;;;;2079564;28;20292;-46
2022/04/28 04:10:11;;;;;;;4.40;4.00;;;;;19.40;101682.00;;;;2079118;28;20221;-46
2022/04/28 04:11:12;;;;;;;5.30;3.90;;;;;19.40;101683.00;;;;2079152;28;20205;-47
2022/04/28 04:12:13;;;;;;;5.78;4.28;;;;;19.40;101678.00;;;;2079106;28;20219;-46
2022/04/28 04:13:13;;;;;;;4.37;4.03;;;;;19.40;101684.00;;;;2079698;28;20232;-46
2022/04/28 04:14:13;;;;;;;5.93;4.07;;;;;19.40;101682.00;;;;2079335;28;20233;-46
2022/04/28 04:15:14;;;;;;;5.53;4.30;;;;;19.40;101686.00;;;;2079042;28;20206;-47
2022/04/28 04:16:14;;;;;;;5.27;4.37;;;;;19.40;101684.00;;;;2078653;28;20210;-46
2022/04/28 04:17:15;;;;;;;4.07;3.77;;;;;19.40;101682.00;;;;2078378;28;20206;-48
2022/04/28 04:18:15;;;;;;;5.00;4.50;;;;;19.30;101684.00;;;;2079126;28;20287;-46
2022/04/28 04:19:16;;;;;;;4.87;4.50;;;;;19.40;101685.00;;;;2079284;28;20217;-46
2022/04/28 04:20:16;;;;;;;5.13;4.63;;;;;19.40;101686.00;;;;2078620;28;20245;-46
2022/04/28 04:21:16;;;;;;;4.80;4.40;;;;;19.30;101613.00;;;;2078699;28;20271;-48
2022/04/28 04:22:17;;;;;;;5.27;4.43;;;;;19.40;101694.00;;;;2077788;28;20229;-47
2022/04/28 04:23:17;;;;;;;4.67;4.10;;;;;19.30;101687.00;;;;2079101;28;20218;-46
2022/04/28 04:24:18;;;;;;;4.43;4.03;;;;;19.40;101696.00;;;;2079185;28;20842;-46
2022/04/28 04:25:18;;;;;;;4.50;4.10;;;;;19.30;101682.00;;;;2078804;28;20709;-47
2022/04/28 04:26:18;;;;;;;3.70;3.43;;;;;19.30;101684.00;;;;2078691;28;20753;-47
2022/04/28 04:27:20;;;;;;;4.70;4.30;;;;;19.30;101687.00;;;;2079107;28;20213;-46
2022/04/28 04:28:20;;;;;;;4.90;4.40;;;;;19.40;101694.00;;;;2079121;28;20228;-47
2022/04/28 04:29:21;;;;;;;4.20;3.90;;;;;19.40;101692.00;;;;2079370;28;20228;-46
2022/04/28 04:32:59;;;;;;;4.88;4.43;;;;;19.30;101690.00;;;;2079667;28;20296;-48
2022/04/28 04:33:59;;;;;;;5.00;4.50;;;;;19.40;101702.00;;;;2079679;28;20222;-46
2022/04/28 04:34:59;;;;;;;5.17;4.23;;;;;19.30;101702.00;;;;2079439;28;20663;-46
2022/04/28 04:36:00;;;;;;;5.40;4.90;;;;;19.30;101697.00;;;;2078957;28;20559;-47
2022/04/28 04:37:00;;;;;;;4.93;4.40;;;;;19.30;101695.00;;;;2079485;28;20627;-48
2022/04/28 04:38:00;;;;;;;5.63;4.80;;;;;19.30;101701.00;;;;2079637;28;20221;-47
2022/04/28 04:39:01;;;;;;;5.13;4.63;;;;;19.30;101698.00;;;;2079548;28;20267;-47
2022/04/28 04:40:01;;;;;;;5.97;4.80;;;;;19.30;101705.00;;;;2079656;28;20267;-46
2022/04/28 04:41:01;;;;;;;4.60;4.20;;;;;19.30;101705.00;;;;2078299;28;20303;-47
2022/04/28 04:42:02;;;;;;;4.40;4.00;;;;;19.40;101704.00;;;;2071288;28;20230;-47
2022/04/28 04:43:03;;;;;;;4.47;4.17;;;;;19.30;101711.00;;;;2071167;28;20253;-47
2022/04/28 04:44:04;;;;;;;4.83;4.30;;;;;19.30;101704.00;;;;2074942;28;20256;-47
2022/04/28 04:45:06;;;;;;;4.57;4.27;;;;;19.30;101707.00;;;;2072238;28;21048;-48
2022/04/28 04:46:06;;;;;;;4.38;3.97;;;;;19.30;101701.00;;;;2072344;28;20928;-47
2022/04/28 04:47:07;;;;;;;4.03;3.73;;;;;19.30;101708.00;;;;2070452;28;20218;-47
2022/04/28 04:48:09;;;;;;;4.67;4.27;;;;;19.30;101710.00;;;;2071255;28;20210;-47
2022/04/28 04:49:10;;;;;;;4.88;4.40;;;;;19.30;101709.00;;;;2062653;28;20763;-46
2022/04/28 04:50:10;;;;;;;4.70;4.30;;;;;19.30;101706.00;;;;2084951;28;20209;-47
2022/04/28 04:51:11;;;;;;;4.50;4.17;;;;;19.30;101697.00;;;;2085376;28;20233;-49
2022/04/28 04:52:11;;;;;;;4.97;4.47;;;;;19.30;101705.00;;;;2079143;28;20209;-47
2022/04/28 04:53:11;;;;;;;5.27;4.87;;;;;19.30;101709.00;;;;2077091;28;20220;-46
2022/04/28 04:54:12;;;;;;;5.33;4.60;;;;;19.30;101705.00;;;;2071234;28;20210;-45
2022/04/28 04:55:12;;;;;;;4.33;4.00;;;;;19.30;101713.00;;;;2070664;28;20253;-47
2022/04/28 04:56:12;;;;;;;4.47;3.87;;;;;19.30;101716.00;;;;2070517;28;20221;-46
2022/04/28 04:57:13;;;;;;;6.53;4.80;;;;;19.30;101717.00;;;;2070482;28;20520;-46
2022/04/28 04:58:13;;;;;;;5.17;4.67;;;;;19.30;101713.00;;;;2070275;28;20695;-46
2022/04/28 04:59:13;;;;;;;4.80;4.30;;;;;19.30;101717.00;;;;2070806;28;20892;-46
2022/04/28 05:00:14;;;;;;;4.57;4.17;;;;;19.30;101708.00;;;;2069963;28;20214;-45
2022/04/28 05:01:14;;;;;;;4.67;4.27;;;;;19.30;101709.00;;;;2069717;28;20206;-47
2022/04/28 05:02:14;;;;;;;4.30;3.90;;;;;19.30;101713.00;;;;2071025;28;20765;-46
2022/04/28 05:03:15;;;;;;;5.23;4.77;;;;;19.30;101713.00;;;;2077493;28;20206;-47
2022/04/28 05:04:15;;;;;;;5.10;4.60;;;;;19.30;101711.00;;;;2079116;28;20233;-47
2022/04/28 05:05:15;;;;;;;5.00;4.60;;;;;19.30;101716.00;;;;2078979;28;20995;-48
2022/04/28 05:06:16;;;;;;;4.40;3.90;;;;;19.30;101723.00;;;;2078822;28;20579;-47
2022/04/28 05:07:16;;;;;;;5.20;4.70;;;;;19.30;101725.00;;;;2079325;28;20213;-48
2022/04/28 05:08:17;;;;;;;4.37;3.97;;;;;19.30;101719.00;;;;2079141;28;20206;-47
2022/04/28 05:09:17;;;;;;;5.13;4.63;;;;;19.30;101721.00;;;;2079274;28;20214;-48
2022/04/28 05:10:18;;;;;;;4.63;4.20;;;;;19.30;101729.00;;;;2079253;28;20205;-48
2022/04/28 05:11:18;;;;;;;4.83;4.37;;;;;19.30;101720.00;;;;2079239;28;20213;-47
2022/04/28 05:12:18;;;;;;;5.37;4.20;;;;;19.30;101731.00;;;;2079315;28;20205;-48
2022/04/28 05:13:19;;;;;;;5.33;4.83;;;;;19.30;101725.00;;;;2078560;28;20221;-47
2022/04/28 05:14:19;;;;;;;4.80;4.40;;;;;19.30;101728.00;;;;2078500;28;20256;-48